EDOP

Schwerin Parchim Airport

Germany
METAR EDOP 181650Z 30013KT 9999 -SN OVC006 01/00 Q0987
Observed Flight Rules
Jan-18 @ 16:50 UTC (11 hours ago) Instrument Flight Rules
Wind Visibility Clouds Conditions
300° at 13 knots 10,000+ meters
  • Overcast at 600' AGL
  • Light Snow
Temperatures Readings
Current 1°C / 34°F
Dewpoint 0°C / 32°F
Humidity 93%
Altimeter 29.14" Hg
Pressure 987 hPa
Elevation 51
METAR EDOP 181650Z 30013KT 9999 -SN OVC006 01/00 Q0987
Observed Flight Rules
Jan-18 @ 16:50 UTC
(11 hours ago)
IFR
Wind Visibility
300° at 13 knots 10,000+ meters
Clouds
  • Overcast at 600' AGL
Conditions
  • Light Snow
Temperature Dewpoint
1°C / 34°F 0°C / 32°F
Humidity Altimeter Pressure
93% 29.14" Hg 987 hPa